createdAt,value
2023-02-18T00:01:17.480Z,86.10
2023-02-18T00:03:45.111Z,86.60
2023-02-18T00:06:16.648Z,86.70
2023-02-18T00:08:45.642Z,86.50
2023-02-18T00:11:13.130Z,86.30
2023-02-18T00:13:40.330Z,86.50
2023-02-18T00:16:15.248Z,86.80
2023-02-18T00:18:42.504Z,87.00
2023-02-18T00:21:09.552Z,87.40
2023-02-18T00:23:36.797Z,87.80
2023-02-18T00:26:07.239Z,88.10
2023-02-18T00:28:35.197Z,87.90
2023-02-18T00:31:30.223Z,88.40
2023-02-18T00:34:00.419Z,87.70
2023-02-18T00:36:28.955Z,87.50
2023-02-18T00:39:01.404Z,87.50
2023-02-18T00:41:30.378Z,87.40
2023-02-18T00:43:57.422Z,87.50
2023-02-18T00:46:25.576Z,87.60
2023-02-18T00:48:54.310Z,87.60
2023-02-18T00:51:24.620Z,87.50
2023-02-18T00:53:52.414Z,87.40
2023-02-18T00:56:20.261Z,87.60
2023-02-18T00:58:47.235Z,87.70
2023-02-18T01:01:14.789Z,87.80
2023-02-18T01:03:43.124Z,87.90
2023-02-18T01:06:11.509Z,87.90
2023-02-18T01:08:40.112Z,87.90
2023-02-18T01:11:09.828Z,87.60
2023-02-18T01:13:39.927Z,87.50
2023-02-18T01:16:08.319Z,87.60
2023-02-18T01:18:36.319Z,87.70
2023-02-18T01:21:08.801Z,87.90
2023-02-18T01:23:40.776Z,88.00
2023-02-18T01:26:09.111Z,87.60
2023-02-18T01:28:38.420Z,87.60
2023-02-18T01:31:12.128Z,88.10
2023-02-18T01:33:40.336Z,88.40
2023-02-18T01:36:08.507Z,88.40
2023-02-18T01:38:36.300Z,88.40
2023-02-18T01:41:04.852Z,88.20
2023-02-18T01:43:32.760Z,87.80
2023-02-18T01:46:20.870Z,87.50
2023-02-18T01:48:51.169Z,87.60
2023-02-18T01:51:27.497Z,87.70
2023-02-18T01:54:11.799Z,87.70
2023-02-18T01:56:51.805Z,88.10
2023-02-18T01:59:25.876Z,88.30
2023-02-18T02:01:54.159Z,88.70
2023-02-18T02:04:21.588Z,88.50
2023-02-18T02:06:49.004Z,87.80
2023-02-18T02:09:19.932Z,87.80
2023-02-18T02:11:47.697Z,88.30
2023-02-18T02:14:29.765Z,88.40
2023-02-18T02:17:20.207Z,88.40
2023-02-18T02:20:15.298Z,88.40
2023-02-18T02:22:48.146Z,88.80
2023-02-18T02:25:20.180Z,88.80
2023-02-18T02:28:02.957Z,88.70
2023-02-18T02:30:51.120Z,88.70
2023-02-18T02:33:27.023Z,89.10
2023-02-18T02:36:23.167Z,89.20
2023-02-18T02:38:58.811Z,89.60
2023-02-18T02:41:54.746Z,89.90
2023-02-18T02:44:31.813Z,90.00
2023-02-18T02:47:06.530Z,90.00
2023-02-18T02:50:29.522Z,89.70
2023-02-18T02:53:02.604Z,89.50
2023-02-18T02:55:32.757Z,89.30
2023-02-18T02:58:00.161Z,89.20
2023-02-18T03:00:58.742Z,89.20
2023-02-18T03:04:01.584Z,89.50
2023-02-18T03:07:12.028Z,89.70
2023-02-18T03:09:57.962Z,89.80
2023-02-18T03:13:12.405Z,89.90
2023-02-18T03:16:00.879Z,90.10
2023-02-18T03:18:37.081Z,90.60
2023-02-18T03:21:37.343Z,90.40
2023-02-18T03:24:14.698Z,90.60
2023-02-18T03:26:50.808Z,90.70
2023-02-18T03:29:20.671Z,90.60
2023-02-18T03:31:55.953Z,90.60
2023-02-18T03:34:30.363Z,90.80
2023-02-18T03:37:00.042Z,90.70
2023-02-18T03:39:31.189Z,90.80
2023-02-18T03:41:58.849Z,90.80
2023-02-18T03:44:26.380Z,90.70
2023-02-18T03:46:53.952Z,90.70
2023-02-18T03:49:21.290Z,90.70
2023-02-18T03:51:48.860Z,90.80
2023-02-18T03:54:16.246Z,90.60
2023-02-18T03:56:43.654Z,90.60
2023-02-18T03:59:13.572Z,90.60
2023-02-18T04:01:41.447Z,90.60
2023-02-18T04:04:08.729Z,90.50
2023-02-18T04:06:35.958Z,90.50
2023-02-18T04:09:08.933Z,90.50
2023-02-18T04:11:41.306Z,90.30
2023-02-18T04:14:10.660Z,89.90
2023-02-18T04:16:38.141Z,89.30
2023-02-18T04:19:05.556Z,89.80
2023-02-18T04:21:34.245Z,90.40
2023-02-18T04:24:04.001Z,91.10
2023-02-18T04:26:32.264Z,91.10
2023-02-18T04:28:59.581Z,91.30
2023-02-18T04:31:26.786Z,91.50
2023-02-18T04:33:54.042Z,91.70
2023-02-18T04:36:21.442Z,91.90
2023-02-18T04:38:48.682Z,92.00
2023-02-18T04:41:15.668Z,92.00
2023-02-18T04:43:42.830Z,92.00
2023-02-18T04:46:10.085Z,92.00
2023-02-18T04:48:38.240Z,92.00
2023-02-18T04:51:05.927Z,92.10
2023-02-18T04:53:33.075Z,92.10
2023-02-18T04:56:00.490Z,92.30
2023-02-18T04:58:27.843Z,92.30
2023-02-18T05:00:59.159Z,92.50
2023-02-18T05:03:26.788Z,92.50
2023-02-18T05:05:54.093Z,92.40
2023-02-18T05:08:21.360Z,92.40
2023-02-18T05:10:48.341Z,92.20
2023-02-18T05:13:15.608Z,92.20
2023-02-18T05:15:42.878Z,92.20
2023-02-18T05:18:10.172Z,92.10
2023-02-18T05:20:37.413Z,92.00
2023-02-18T05:23:04.447Z,91.90
2023-02-18T05:25:31.618Z,92.00
2023-02-18T05:27:58.874Z,92.00
2023-02-18T05:30:25.867Z,91.90
2023-02-18T05:32:52.961Z,91.90
2023-02-18T05:35:20.320Z,91.90
2023-02-18T05:37:48.709Z,91.90
2023-02-18T05:40:15.883Z,91.80
2023-02-18T05:42:43.247Z,91.90
2023-02-18T05:45:10.369Z,92.00
2023-02-18T05:47:37.595Z,92.10
2023-02-18T05:50:05.435Z,91.90
2023-02-18T05:52:32.391Z,91.70
2023-02-18T05:54:59.946Z,91.70
2023-02-18T05:57:27.706Z,91.70
2023-02-18T06:00:00.017Z,91.80
2023-02-18T06:02:29.680Z,91.90
2023-02-18T06:04:58.574Z,91.90
2023-02-18T06:07:26.870Z,91.80
2023-02-18T06:09:56.235Z,91.90
2023-02-18T06:12:27.774Z,92.00
2023-02-18T06:14:55.380Z,92.10
2023-02-18T06:17:26.461Z,92.20
2023-02-18T06:19:54.834Z,92.20
2023-02-18T06:22:23.149Z,92.20
2023-02-18T06:24:54.797Z,92.30
2023-02-18T06:27:24.157Z,92.30
2023-02-18T06:29:52.489Z,92.30
2023-02-18T06:32:20.005Z,92.30
2023-02-18T06:34:47.184Z,92.10
2023-02-18T06:37:14.869Z,92.00
2023-02-18T06:39:41.990Z,92.00
2023-02-18T06:42:09.498Z,92.00
2023-02-18T06:44:38.228Z,92.00
2023-02-18T06:47:06.843Z,92.00
2023-02-18T06:49:39.073Z,91.90
2023-02-18T06:52:07.910Z,91.90
2023-02-18T06:54:34.989Z,91.90
2023-02-18T06:57:04.137Z,91.80
2023-02-18T06:59:31.274Z,91.80
2023-02-18T07:02:02.339Z,91.90
2023-02-18T07:04:30.035Z,91.70
2023-02-18T07:06:58.087Z,91.70
2023-02-18T07:09:25.470Z,91.80
2023-02-18T07:11:53.750Z,91.80
2023-02-18T07:14:21.618Z,91.80
2023-02-18T07:16:49.778Z,91.80
2023-02-18T07:19:17.649Z,91.80
2023-02-18T07:21:45.280Z,91.70
2023-02-18T07:24:14.292Z,91.50
2023-02-18T07:26:41.392Z,91.40
2023-02-18T07:29:09.496Z,91.20
2023-02-18T07:31:36.907Z,90.90
2023-02-18T07:34:04.417Z,90.80
2023-02-18T07:36:31.826Z,90.50
2023-02-18T07:38:58.965Z,90.30
2023-02-18T07:41:26.279Z,90.20
2023-02-18T07:43:53.821Z,90.00
2023-02-18T07:46:21.071Z,89.60
2023-02-18T07:48:49.830Z,89.40
2023-02-18T07:51:17.107Z,89.10
2023-02-18T07:53:45.537Z,89.00
2023-02-18T07:56:12.609Z,89.20
2023-02-18T07:58:40.040Z,89.30
2023-02-18T08:01:15.026Z,89.70
2023-02-18T08:03:42.973Z,90.00
2023-02-18T08:06:21.856Z,90.10
2023-02-18T08:08:49.344Z,90.20
2023-02-18T08:11:19.500Z,90.20
2023-02-18T08:13:48.666Z,90.30
2023-02-18T08:16:21.436Z,90.50
2023-02-18T08:18:49.822Z,90.70
2023-02-18T08:21:23.720Z,90.90
2023-02-18T08:23:51.025Z,90.90
2023-02-18T08:26:18.699Z,90.80
2023-02-18T08:28:47.981Z,90.80
2023-02-18T08:31:26.732Z,90.80
2023-02-18T08:33:59.252Z,90.80
2023-02-18T08:36:33.306Z,90.90
2023-02-18T08:39:00.903Z,90.80
2023-02-18T08:41:28.360Z,90.80
2023-02-18T08:43:55.674Z,90.80
2023-02-18T08:46:27.158Z,90.80
2023-02-18T08:49:03.678Z,90.60
2023-02-18T08:51:31.837Z,90.40
2023-02-18T08:53:59.833Z,90.30
2023-02-18T08:56:28.086Z,90.20
2023-02-18T08:58:56.221Z,90.30
2023-02-18T09:01:23.787Z,90.20
2023-02-18T09:03:51.510Z,90.10
2023-02-18T09:06:18.620Z,90.00
2023-02-18T09:08:45.909Z,90.00
2023-02-18T09:11:13.264Z,90.00
2023-02-18T09:13:41.830Z,89.90
2023-02-18T09:16:13.240Z,89.60
2023-02-18T09:18:41.081Z,89.20
2023-02-18T09:21:10.532Z,88.50
2023-02-18T09:23:38.510Z,88.20
2023-02-18T09:26:10.678Z,88.00
2023-02-18T09:28:38.385Z,87.60
2023-02-18T09:31:11.409Z,87.60
2023-02-18T09:33:43.678Z,87.30
2023-02-18T09:36:12.315Z,86.80
2023-02-18T09:38:41.044Z,86.50
2023-02-18T09:41:18.110Z,86.30
2023-02-18T09:43:49.384Z,85.70
2023-02-18T09:46:25.374Z,84.90
2023-02-18T09:48:53.479Z,85.10
2023-02-18T09:51:20.621Z,84.10
2023-02-18T09:53:48.082Z,83.70
2023-02-18T09:56:19.996Z,83.30
2023-02-18T09:58:48.453Z,82.90
2023-02-18T10:01:33.238Z,82.20
2023-02-18T10:04:26.322Z,82.00
2023-02-18T10:06:54.610Z,81.80
2023-02-18T10:09:41.944Z,81.60
2023-02-18T10:12:19.881Z,81.30
2023-02-18T10:14:56.664Z,81.00
2023-02-18T10:17:26.537Z,80.50
2023-02-18T10:19:55.922Z,80.10
2023-02-18T10:22:25.723Z,79.40
2023-02-18T10:25:01.178Z,78.90
2023-02-18T10:27:37.664Z,78.60
2023-02-18T10:30:28.899Z,79.10
2023-02-18T10:33:13.045Z,79.60
2023-02-18T10:35:49.749Z,79.10
2023-02-18T10:38:42.574Z,78.30
2023-02-18T10:41:33.901Z,78.20
2023-02-18T10:44:19.796Z,78.40
2023-02-18T10:47:05.281Z,78.50
2023-02-18T10:50:01.660Z,78.80
2023-02-18T10:52:40.714Z,78.70
2023-02-18T10:55:13.398Z,78.10
2023-02-18T10:57:52.998Z,78.10
2023-02-18T11:00:27.505Z,78.20
2023-02-18T11:03:13.594Z,77.70
2023-02-18T11:05:42.144Z,77.30
2023-02-18T11:08:14.960Z,77.00
2023-02-18T11:10:45.357Z,76.40
2023-02-18T11:13:15.652Z,76.10
2023-02-18T11:16:06.305Z,75.40
2023-02-18T11:18:42.364Z,75.60
2023-02-18T11:21:29.775Z,75.90
2023-02-18T11:24:07.023Z,76.10
2023-02-18T11:26:36.385Z,75.60
2023-02-18T11:29:09.068Z,75.20
2023-02-18T11:31:46.169Z,75.20
2023-02-18T11:34:33.179Z,75.00
2023-02-18T11:37:32.526Z,74.90
2023-02-18T11:40:00.799Z,74.90
2023-02-18T11:42:28.545Z,74.90
2023-02-18T11:45:00.758Z,74.90
2023-02-18T11:47:37.882Z,74.70
2023-02-18T11:50:21.241Z,73.80
2023-02-18T11:52:50.529Z,73.50
2023-02-18T11:55:22.930Z,73.70
2023-02-18T11:58:02.715Z,73.30
2023-02-18T12:00:46.334Z,73.50
2023-02-18T12:03:35.718Z,73.40
2023-02-18T12:06:11.945Z,73.20
2023-02-18T12:09:01.042Z,72.80
2023-02-18T12:11:40.956Z,73.40
2023-02-18T12:14:22.914Z,73.10
2023-02-18T12:17:24.274Z,73.00
2023-02-18T12:20:17.563Z,72.80
2023-02-18T12:22:52.489Z,73.10
2023-02-18T12:26:13.864Z,72.90
2023-02-18T12:28:44.048Z,72.70
2023-02-18T12:31:49.575Z,73.30
2023-02-18T12:34:51.957Z,73.10
2023-02-18T12:37:28.096Z,71.80
2023-02-18T12:40:40.491Z,71.20
2023-02-18T12:43:33.795Z,71.50
2023-02-18T12:46:20.840Z,70.30
2023-02-18T12:49:00.388Z,70.90
2023-02-18T12:51:42.995Z,70.00
2023-02-18T12:54:32.689Z,69.90
2023-02-18T12:57:07.239Z,69.30
2023-02-18T12:59:53.200Z,69.40
2023-02-18T13:02:33.095Z,69.10
2023-02-18T13:05:26.560Z,68.80
2023-02-18T13:08:18.807Z,68.20
2023-02-18T13:11:01.263Z,67.30
2023-02-18T13:14:00.713Z,67.40
2023-02-18T13:16:29.450Z,68.10
2023-02-18T13:19:23.278Z,68.30
2023-02-18T13:22:00.006Z,67.60
2023-02-18T13:24:39.217Z,67.50
2023-02-18T13:27:15.670Z,67.50
2023-02-18T13:29:58.526Z,66.90
2023-02-18T13:32:44.467Z,66.70
2023-02-18T13:35:26.939Z,66.60
2023-02-18T13:38:00.693Z,66.60
2023-02-18T13:40:31.042Z,66.60
2023-02-18T13:43:35.011Z,66.60
2023-02-18T13:46:07.510Z,66.90
2023-02-18T13:48:39.559Z,67.00
2023-02-18T13:51:07.679Z,67.10
2023-02-18T13:53:42.884Z,67.20
2023-02-18T13:56:33.578Z,67.80
2023-02-18T13:59:26.995Z,68.10
2023-02-18T14:01:55.573Z,67.00
2023-02-18T14:04:42.359Z,66.60
2023-02-18T14:07:25.207Z,66.60
2023-02-18T14:09:54.128Z,66.80
2023-02-18T14:12:40.152Z,66.90
2023-02-18T14:15:27.922Z,66.60
2023-02-18T14:18:13.027Z,66.90
2023-02-18T14:20:40.666Z,67.00
2023-02-18T14:23:22.973Z,67.60
2023-02-18T14:26:09.885Z,67.50
2023-02-18T14:29:18.226Z,67.00
2023-02-18T14:32:13.342Z,66.60
2023-02-18T14:34:48.145Z,66.80
2023-02-18T14:37:37.340Z,66.90
2023-02-18T14:40:23.421Z,66.60
2023-02-18T14:43:31.060Z,67.20
2023-02-18T14:46:21.106Z,67.50
2023-02-18T14:49:10.479Z,67.80
2023-02-18T14:51:40.860Z,67.80
2023-02-18T14:54:14.494Z,67.60
2023-02-18T14:56:50.045Z,67.40
2023-02-18T14:59:19.622Z,67.60
2023-02-18T15:01:48.575Z,67.60
2023-02-18T15:04:16.472Z,67.60
2023-02-18T15:06:43.702Z,67.40
2023-02-18T15:09:19.042Z,67.60
2023-02-18T15:11:54.927Z,67.60
2023-02-18T15:14:44.394Z,67.70
2023-02-18T15:17:17.408Z,68.00
2023-02-18T15:19:51.201Z,68.50
2023-02-18T15:22:22.595Z,68.80
2023-02-18T15:24:51.448Z,69.10
2023-02-18T15:27:47.353Z,69.40
2023-02-18T15:30:32.199Z,69.50
2023-02-18T15:33:01.353Z,69.70
2023-02-18T15:35:33.271Z,69.90
2023-02-18T15:38:02.386Z,70.10
2023-02-18T15:40:35.534Z,70.30
2023-02-18T15:43:08.323Z,70.50
2023-02-18T15:45:42.338Z,70.60
2023-02-18T15:48:25.236Z,70.80
2023-02-18T15:50:56.928Z,70.90
2023-02-18T15:53:30.419Z,71.10
2023-02-18T15:55:58.157Z,71.30
2023-02-18T15:58:32.925Z,72.10
2023-02-18T16:01:07.004Z,71.70
2023-02-18T16:03:41.285Z,71.90
2023-02-18T16:06:24.341Z,72.40
2023-02-18T16:09:04.475Z,72.70
2023-02-18T16:11:35.660Z,72.90
2023-02-18T16:14:03.664Z,73.10
2023-02-18T16:16:33.975Z,73.20
2023-02-18T16:19:02.316Z,73.40
2023-02-18T16:21:45.283Z,73.70
2023-02-18T16:24:28.266Z,73.70
2023-02-18T16:26:58.237Z,73.80
2023-02-18T16:29:37.592Z,74.10
2023-02-18T16:32:05.543Z,74.20
2023-02-18T16:34:38.200Z,74.20
2023-02-18T16:37:24.748Z,74.40
2023-02-18T16:39:54.880Z,74.70
2023-02-18T16:42:22.755Z,74.90
2023-02-18T16:44:50.899Z,75.00
2023-02-18T16:47:19.692Z,75.40
2023-02-18T16:49:49.181Z,75.80
2023-02-18T16:52:18.727Z,76.00
2023-02-18T16:54:48.568Z,76.30
2023-02-18T16:57:15.730Z,76.40
2023-02-18T16:59:42.938Z,76.50
2023-02-18T17:02:20.108Z,76.60
2023-02-18T17:04:48.833Z,76.80
2023-02-18T17:07:16.340Z,77.00
2023-02-18T17:09:44.818Z,77.10
2023-02-18T17:12:13.023Z,77.20
2023-02-18T17:14:40.325Z,77.40
2023-02-18T17:17:12.962Z,77.20
2023-02-18T17:19:40.398Z,77.10
2023-02-18T17:22:07.482Z,77.40
2023-02-18T17:24:34.885Z,77.70
2023-02-18T17:27:01.961Z,77.80
2023-02-18T17:29:29.529Z,77.70
2023-02-18T17:31:57.813Z,77.70
2023-02-18T17:34:31.107Z,77.90
2023-02-18T17:36:58.322Z,78.20
2023-02-18T17:39:25.418Z,78.50
2023-02-18T17:41:52.747Z,78.70
2023-02-18T17:44:23.126Z,78.60
2023-02-18T17:46:51.012Z,78.60
2023-02-18T17:49:18.450Z,79.00
2023-02-18T17:51:48.022Z,79.40
2023-02-18T17:54:19.401Z,79.60
2023-02-18T17:56:49.439Z,80.00
2023-02-18T17:59:17.368Z,80.30
2023-02-18T18:01:45.117Z,80.40
2023-02-18T18:04:17.872Z,80.60
2023-02-18T18:06:47.017Z,80.90
2023-02-18T18:09:14.179Z,81.00
2023-02-18T18:11:41.590Z,81.10
2023-02-18T18:14:13.312Z,81.30
2023-02-18T18:16:41.924Z,81.60
2023-02-18T18:19:09.038Z,81.80
2023-02-18T18:21:36.883Z,82.00
2023-02-18T18:24:04.569Z,82.10
2023-02-18T18:26:32.514Z,82.20
2023-02-18T18:29:01.409Z,82.40
2023-02-18T18:31:28.738Z,82.80
2023-02-18T18:33:57.212Z,83.00
2023-02-18T18:36:24.608Z,83.40
2023-02-18T18:38:53.421Z,83.30
2023-02-18T18:41:22.952Z,83.50
2023-02-18T18:43:50.999Z,83.70
2023-02-18T18:46:19.659Z,83.30
2023-02-18T18:48:46.736Z,83.00
2023-02-18T18:51:17.084Z,83.40
2023-02-18T18:53:44.661Z,84.10
2023-02-18T18:56:13.733Z,83.90
2023-02-18T18:58:41.102Z,84.40
2023-02-18T19:01:18.488Z,84.80
2023-02-18T19:03:46.650Z,85.10
2023-02-18T19:06:15.949Z,85.30
2023-02-18T19:08:43.710Z,85.50
2023-02-18T19:11:13.038Z,85.50
2023-02-18T19:13:40.952Z,85.60
2023-02-18T19:16:12.618Z,85.60
2023-02-18T19:18:42.653Z,85.50
2023-02-18T19:21:09.979Z,85.40
2023-02-18T19:23:38.772Z,85.00
2023-02-18T19:26:06.485Z,84.90
2023-02-18T19:28:33.925Z,84.60
2023-02-18T19:31:01.396Z,84.00
2023-02-18T19:33:28.644Z,84.20
2023-02-18T19:35:56.263Z,84.30
2023-02-18T19:38:23.397Z,85.20
2023-02-18T19:40:53.955Z,85.20
2023-02-18T19:43:22.208Z,85.80
2023-02-18T19:45:49.417Z,86.00
2023-02-18T19:48:19.381Z,85.80
2023-02-18T19:50:46.467Z,85.60
2023-02-18T19:53:14.345Z,85.50
2023-02-18T19:55:41.502Z,85.80
2023-02-18T19:58:08.752Z,86.20
2023-02-18T20:00:35.765Z,86.50
2023-02-18T20:03:02.904Z,86.80
2023-02-18T20:05:30.260Z,87.10
2023-02-18T20:07:58.128Z,87.30
2023-02-18T20:10:25.672Z,87.30
2023-02-18T20:12:54.069Z,87.00
2023-02-18T20:15:21.936Z,86.80
2023-02-18T20:17:49.870Z,86.90
2023-02-18T20:20:17.712Z,87.40
2023-02-18T20:22:45.163Z,88.10
2023-02-18T20:25:14.270Z,88.80
2023-02-18T20:27:58.171Z,89.40
2023-02-18T20:30:28.586Z,90.00
2023-02-18T20:32:56.301Z,90.20
2023-02-18T20:35:23.713Z,90.50
2023-02-18T20:37:50.841Z,90.70
2023-02-18T20:40:18.500Z,90.90
2023-02-18T20:42:46.863Z,91.00
2023-02-18T20:45:14.336Z,91.10
2023-02-18T20:47:43.612Z,91.20
2023-02-18T20:50:12.647Z,91.40
2023-02-18T20:52:40.669Z,91.60
2023-02-18T20:55:08.010Z,91.80
2023-02-18T20:57:34.970Z,92.00
2023-02-18T21:00:02.118Z,92.00
2023-02-18T21:02:29.292Z,92.10
2023-02-18T21:04:57.988Z,92.00
2023-02-18T21:07:25.036Z,92.10
2023-02-18T21:09:52.578Z,92.20
2023-02-18T21:12:24.325Z,92.40
2023-02-18T21:14:51.464Z,92.50
2023-02-18T21:17:18.371Z,92.90
2023-02-18T21:19:45.423Z,92.70
2023-02-18T21:22:12.944Z,92.70
2023-02-18T21:24:40.005Z,92.80
2023-02-18T21:27:07.336Z,92.80
2023-02-18T21:29:36.478Z,92.80
2023-02-18T21:32:04.030Z,92.80
2023-02-18T21:34:33.650Z,92.90
2023-02-18T21:37:02.294Z,93.00
2023-02-18T21:39:29.315Z,93.00
2023-02-18T21:41:57.392Z,93.10
2023-02-18T21:44:32.948Z,93.20
2023-02-18T21:47:07.477Z,93.10
2023-02-18T21:49:34.602Z,93.00
2023-02-18T21:52:19.583Z,92.80
2023-02-18T21:54:46.913Z,92.70
2023-02-18T21:57:17.325Z,92.80
2023-02-18T21:59:45.723Z,92.80
2023-02-18T22:02:20.045Z,92.90
2023-02-18T22:05:08.349Z,93.00
2023-02-18T22:07:35.401Z,93.00
2023-02-18T22:10:02.694Z,93.10
2023-02-18T22:12:32.069Z,93.20
2023-02-18T22:14:59.108Z,93.10
2023-02-18T22:17:30.233Z,93.10
2023-02-18T22:19:57.350Z,93.20
2023-02-18T22:22:24.420Z,93.10
2023-02-18T22:24:51.572Z,93.20
2023-02-18T22:27:19.575Z,93.30
2023-02-18T22:29:47.454Z,93.30
2023-02-18T22:32:14.862Z,93.40
2023-02-18T22:34:42.251Z,93.30
2023-02-18T22:37:09.254Z,93.30
2023-02-18T22:39:36.415Z,93.30
2023-02-18T22:42:04.246Z,93.80
2023-02-18T22:44:31.627Z,94.10
2023-02-18T22:46:58.625Z,94.30
2023-02-18T22:49:26.272Z,94.40
2023-02-18T22:51:54.467Z,94.40
2023-02-18T22:54:22.146Z,94.10
2023-02-18T22:56:51.701Z,93.90
2023-02-18T22:59:19.699Z,93.70
2023-02-18T23:01:49.423Z,93.50
2023-02-18T23:04:18.802Z,93.40
2023-02-18T23:06:46.603Z,93.30
2023-02-18T23:09:19.731Z,93.20
2023-02-18T23:11:53.588Z,93.10
2023-02-18T23:14:23.974Z,93.10
2023-02-18T23:17:14.316Z,93.00
2023-02-18T23:19:54.144Z,93.10
2023-02-18T23:22:29.696Z,93.10
2023-02-18T23:24:57.052Z,93.00
2023-02-18T23:27:25.373Z,92.80
2023-02-18T23:29:53.478Z,92.50
2023-02-18T23:32:20.716Z,92.10
2023-02-18T23:34:52.191Z,92.20
2023-02-18T23:37:40.344Z,92.30
2023-02-18T23:40:09.198Z,92.70
2023-02-18T23:42:37.399Z,93.20
2023-02-18T23:45:06.456Z,93.60
2023-02-18T23:47:33.512Z,93.90
2023-02-18T23:50:00.583Z,94.00
2023-02-18T23:52:27.601Z,94.00
2023-02-18T23:54:54.881Z,94.00
2023-02-18T23:57:21.855Z,94.00
2023-02-18T23:59:48.916Z,93.90
